Weather observations for the past three days for
Hayward, Hayward Air Terminal
Metric (Imperial)
Date Time (pdt) Wind (kph) Vis. (km) Weather Sky Cond. Temperature (ºC) Relative Humidity Wind Chill (°C) Heat Index (°C) Pressure Precipitation (cm)
Air Dwpt 6 hour altimeter (cm) sea level (mb) 1 hr 3 hr 6 hr
Max. Min.
09 16:54 W 22 16.09 A Few Clouds FEW012 16.7 12.2 18.9 16.1 75% 76.1 1015.5
09 15:54 W 24 16.09 Fair CLR 17.8 12.2 70% 76.12 1015.7
09 14:54 W 24 16.09 Fair CLR 17.8 12.2 70% 76.15 1016.1
09 13:54 W 24 16.09 Fair CLR 18.3 12.2 68% 76.17 1016.4
09 12:54 W 15 16.09 Fair CLR 18.9 11.7 63% 76.17 1016.6
09 11:54 W 13 16.09 Fair CLR 17.2 11.7 70% 76.23 1017.1
09 10:54 W 17 16.09 A Few Clouds FEW015 16.7 11.1 17.2 12.8 70% 76.23 1017.3
09 09:54 Calm 16.09 Fair CLR 15.6 10.6 72% 76.23 1017.3
09 08:54 Calm 16.09 Mostly Cloudy BKN013 13.9 10.6 81% 76.23 1017.3
09 07:54 Vrbl 6 16.09 Overcast OVC012 12.8 10 83% 76.23 1017.1
09 06:54 Calm 16.09 Mostly Cloudy BKN011 12.8 10 83% 76.2 1017.0
09 05:54 NW 6 16.09 Overcast OVC011 12.8 10.6 87% 76.2 1016.7
09 04:54 W 6 16.09 Overcast OVC013 12.8 10 13.3 11.7 83% 76.2 1016.7
09 03:54 Calm 16.09 Mostly Cloudy BKN013 12.2 10 87% 76.2 1016.8
09 02:54 W 7 16.09 Partly Cloudy SCT013 12.2 10 87% 76.23 1017.1
09 01:54 W 17 16.09 Overcast OVC011 12.8 10 83% 76.23 1017.2
09 00:54 SW 15 16.09 Overcast OVC012 12.8 10.6 87% 76.25 1017.5
08 23:54 SW 13 16.09 Overcast OVC012 13.3 10.6 84% 76.28 1017.7
08 22:54 W 15 16.09 Overcast OVC012 13.3 10.6 16.1 13.3 84% 76.3 1018.0
08 21:54 SW 7 16.09 Overcast OVC012 13.3 10.6 84% 76.3 1018.1
08 20:54 W 11 16.09 Overcast OVC012 13.9 10.6 81% 76.28 1017.8
08 19:54 W 15 16.09 Partly Cloudy SCT013 13.9 10.6 81% 76.25 1017.6
08 18:54 W 11 16.09 Partly Cloudy SCT013 14.4 11.1 81% 76.25 1017.4
08 17:54 W 20 16.09 A Few Clouds FEW013 15.6 11.1 75% 76.25 1017.7
08 16:54 W 24 16.09 A Few Clouds FEW014 16.1 11.7 16.7 13.3 75% 76.28 1017.9
08 15:54 W 22 16.09 A Few Clouds FEW015 16.1 11.1 72% 76.33 1018.5
08 14:54 W 19 16.09 A Few Clouds FEW014 16.7 11.1 70% 76.38 1019.2
08 13:54 W 19 16.09 Mostly Cloudy BKN013 15.6 11.1 75% 76.43 1019.9
08 12:54 NW 11 16.09 Overcast OVC010 14.4 11.1 81% 76.45 1020.3
08 11:54 W 19 16.09 Overcast BKN010 OVC015 13.9 11.1 83% 76.48 1020.7
08 10:54 W 15 16.09 Overcast OVC012 13.9 10 13.9 12.2 78% 76.5 1020.9
08 09:54 W 15 16.09 Overcast OVC012 13.3 10 81% 76.5 1020.8
08 08:54 SW 11 16.09 Overcast OVC012 12.8 9.4 80% 76.48 1020.5
08 07:54 W 13 16.09 Overcast OVC014 12.8 9.4 80% 76.48 1020.4
08 06:54 W 17 16.09 Overcast OVC013 12.8 8.9 77% 76.43 1020.1
08 05:54 W 9 16.09 Overcast OVC014 12.8 9.4 80% 76.4 1019.7
08 04:54 W 13 16.09 Overcast OVC013 12.2 9.4 13.3 12.2 83% 76.43 1019.7
08 03:54 W 9 16.09 Overcast OVC012 12.2 9.4 83% 76.4 1019.7
08 02:54 W 13 16.09 Overcast OVC013 12.2 9.4 83% 76.4 1019.7
08 01:54 W 11 16.09 Overcast OVC013 12.8 9.4 80% 76.4 1019.5
08 00:54 SW 13 16.09 Overcast OVC013 12.8 9.4 80% 76.4 1019.7
07 23:54 W 17 16.09 Overcast OVC010 13.3 10 81% 76.4 1019.6
07 22:54 NW 11 16.09 Overcast OVC008 12.8 10.6 16.7 12.8 87% 76.4 1019.5
07 21:54 NW 13 16.09 Overcast OVC008 13.3 11.1 87% 76.4 1019.4
07 20:54 NW 15 16.09 Overcast OVC008 13.3 11.1 87% 76.35 1018.8
07 19:54 W 17 16.09 Mostly Cloudy BKN012 13.9 11.7 87% 76.3 1018.2
07 18:54 W 13 16.09 A Few Clouds FEW007 15 11.7 81% 76.3 1018.1
07 17:54 W 19 16.09 A Few Clouds FEW007 15.6 11.1 75% 76.3 1018.2
07 16:54 NW 28 16.09 Fair CLR 16.7 11.7 18.3 13.9 73% 76.3 1018.3
07 15:54 W 26 16.09 Fair CLR 18.3 12.2 68% 76.3 1018.2
07 14:54 W 20 G 30 16.09 Fair CLR 18.3 12.2 68% 76.35 1018.7
07 13:54 W 17 16.09 Fair CLR 17.8 12.2 70% 76.4 1019.4
07 12:54 NW 7 16.09 Fair CLR 17.2 11.1 68% 76.43 1019.9
07 11:54 Vrbl 9 16.09 Partly Cloudy SCT014 15.6 11.1 75% 76.48 1020.5
07 10:54 W 15 16.09 Overcast OVC012 14.4 10.6 14.4 12.2 78% 76.5 1020.8
07 09:54 W 6 16.09 Overcast OVC011 13.3 11.1 87% 76.48 1020.7
07 08:54 NW 11 16.09 Overcast OVC009 12.8 10.6 87% 76.48 1020.7
07 07:54 NW 6 16.09 Overcast OVC009 12.8 10.6 87% 76.48 1020.6
07 06:54 W 7 16.09 Overcast OVC009 12.8 10.6 87% 76.45 1020.3
07 05:54 W 13 16.09 Overcast OVC008 12.2 10.6 90% 76.43 1020.0
07 04:54 W 7 16.09 Overcast OVC009 12.8 10.6 13.3 12.8 87% 76.43 1020.0
07 03:54 W 11 16.09 Overcast OVC009 12.8 10.6 87% 76.45 1020.1
07 02:54 W 9 16.09 Overcast OVC008 12.8 11.1 90% 76.43 1019.9
07 01:54 W 7 16.09 Overcast OVC009 13.3 11.7 90% 76.45 1020.3
07 00:54 W 17 16.09 Overcast OVC008 13.3 11.7 90% 76.48 1020.6
06 23:54 NW 7 16.09 Overcast OVC009 13.3 11.7 90% 76.48 1020.6
06 22:54 W 11 16.09 Overcast OVC009 13.9 11.7 18.3 13.3 87% 76.48 1020.6
06 21:54 W 11 16.09 Mostly Cloudy BKN010 13.9 11.7 87% 76.48 1020.6
06 20:54 W 11 16.09 Partly Cloudy SCT020 14.4 11.7 84% 76.45 1020.1
06 19:54 NW 19 16.09 A Few Clouds FEW020 15 11.7 81% 76.4 1019.7
06 18:54 W 24 16.09 Fair CLR 16.1 12.2 78% 76.4 1019.5
06 17:54 W 28 16.09 Fair CLR 17.8 12.8 73% 76.38 1019.2
Date Time (pdt) Wind (kph) Vis. (km) Weather Sky Cond. Air Dwpt Max. Min. Relative Humidity Wind Chill (°C) Heat Index (°C) altimeter (cm) sea level (mb) 1 hr 3 hr 6 hr
6 hour
Temperature (ºC) Pressure Precipitation (cm)